Mount Darwin, Zimbabwe
Current Conditions -  °F | °C
As of 4:00 PM on Friday 19 Dec 2014 (Local Time) from FVHA Reporting Station
Broken Clouds Broken Clouds  
Wind Chill: 68°   Ceiling: 8000
Heat Index: 68°   Visibility: 6mi
Dew Point: 66°   Wind: 8mph
Humidity: 94%   Direction: 300°WNW
Pressure: 30.09"   Gusts: NA
Location:  16.77°S, 31.58°E
Report Text: FVHA 191400Z 30007KT 9999 SCT010 BKN080 20/19 Q1019 RERA NOSIG RMK QFE 851.5
Loading
Personal Weather Stations






























Interactive Weather Map New forecast layout! Learn more

10-Day Weather Forecast

Advertisements
Track Severe Weather on mobile